sensor_id;sensor_type;location;lat;lon;timestamp;temperature;humidity
41884;DHT22;27566;50.930;5.328;2024-01-30T00:01:22;10.50;78.00
41884;DHT22;27566;50.930;5.328;2024-01-30T00:03:48;10.40;78.60
41884;DHT22;27566;50.930;5.328;2024-01-30T00:06:18;10.50;78.50
41884;DHT22;27566;50.930;5.328;2024-01-30T00:08:46;10.40;79.00
41884;DHT22;27566;50.930;5.328;2024-01-30T00:11:14;10.30;78.30
41884;DHT22;27566;50.930;5.328;2024-01-30T00:13:41;10.30;78.50
41884;DHT22;27566;50.930;5.328;2024-01-30T00:16:07;10.30;79.10
41884;DHT22;27566;50.930;5.328;2024-01-30T00:18:33;10.40;79.00
41884;DHT22;27566;50.930;5.328;2024-01-30T00:20:59;10.30;79.20
41884;DHT22;27566;50.930;5.328;2024-01-30T00:28:17;10.50;79.20
41884;DHT22;27566;50.930;5.328;2024-01-30T00:33:09;10.70;79.60
41884;DHT22;27566;50.930;5.328;2024-01-30T00:35:35;10.30;79.50
41884;DHT22;27566;50.930;5.328;2024-01-30T00:38:01;10.30;79.10
41884;DHT22;27566;50.930;5.328;2024-01-30T00:40:27;10.30;79.30
41884;DHT22;27566;50.930;5.328;2024-01-30T00:45:19;10.20;79.40
41884;DHT22;27566;50.930;5.328;2024-01-30T00:47:45;10.40;79.90
41884;DHT22;27566;50.930;5.328;2024-01-30T00:50:11;10.40;79.20
41884;DHT22;27566;50.930;5.328;2024-01-30T00:52:37;10.40;80.00
41884;DHT22;27566;50.930;5.328;2024-01-30T00:55:05;10.40;79.70
41884;DHT22;27566;50.930;5.328;2024-01-30T00:57:30;10.40;79.50
41884;DHT22;27566;50.930;5.328;2024-01-30T00:59:57;10.40;79.60
41884;DHT22;27566;50.930;5.328;2024-01-30T01:02:23;10.40;79.50
41884;DHT22;27566;50.930;5.328;2024-01-30T01:04:49;10.50;79.50
41884;DHT22;27566;50.930;5.328;2024-01-30T01:07:15;10.40;79.40
41884;DHT22;27566;50.930;5.328;2024-01-30T01:12:07;10.70;79.40
41884;DHT22;27566;50.930;5.328;2024-01-30T01:16:59;10.40;78.60
41884;DHT22;27566;50.930;5.328;2024-01-30T01:21:51;10.30;78.80
41884;DHT22;27566;50.930;5.328;2024-01-30T01:24:17;10.30;79.40
41884;DHT22;27566;50.930;5.328;2024-01-30T01:26:42;10.30;79.40
41884;DHT22;27566;50.930;5.328;2024-01-30T01:31:37;10.30;79.10
41884;DHT22;27566;50.930;5.328;2024-01-30T01:34:12;10.30;79.60
41884;DHT22;27566;50.930;5.328;2024-01-30T01:36:39;10.80;80.30
41884;DHT22;27566;50.930;5.328;2024-01-30T01:39:05;10.10;79.80
41884;DHT22;27566;50.930;5.328;2024-01-30T01:41:34;10.30;80.00
41884;DHT22;27566;50.930;5.328;2024-01-30T01:44:00;10.40;79.80
41884;DHT22;27566;50.930;5.328;2024-01-30T01:46:31;10.40;79.60
41884;DHT22;27566;50.930;5.328;2024-01-30T01:48:58;10.30;79.60
41884;DHT22;27566;50.930;5.328;2024-01-30T01:51:27;10.40;79.00
41884;DHT22;27566;50.930;5.328;2024-01-30T01:53:53;10.40;79.60
41884;DHT22;27566;50.930;5.328;2024-01-30T01:56:20;10.40;79.00
41884;DHT22;27566;50.930;5.328;2024-01-30T01:58:46;10.50;79.60
41884;DHT22;27566;50.930;5.328;2024-01-30T02:01:13;10.50;79.40
41884;DHT22;27566;50.930;5.328;2024-01-30T02:03:40;10.40;79.40
41884;DHT22;27566;50.930;5.328;2024-01-30T02:06:06;10.20;79.20
41884;DHT22;27566;50.930;5.328;2024-01-30T02:08:33;10.50;79.50
41884;DHT22;27566;50.930;5.328;2024-01-30T02:10:59;10.40;79.30
41884;DHT22;27566;50.930;5.328;2024-01-30T02:13:25;10.50;79.60
41884;DHT22;27566;50.930;5.328;2024-01-30T02:15:51;10.60;79.10
41884;DHT22;27566;50.930;5.328;2024-01-30T02:18:19;10.60;79.70
41884;DHT22;27566;50.930;5.328;2024-01-30T02:20:45;10.80;79.40
41884;DHT22;27566;50.930;5.328;2024-01-30T02:23:12;10.60;79.40
41884;DHT22;27566;50.930;5.328;2024-01-30T02:25:39;10.80;78.80
41884;DHT22;27566;50.930;5.328;2024-01-30T02:28:11;10.80;78.50
41884;DHT22;27566;50.930;5.328;2024-01-30T02:30:40;10.80;78.50
41884;DHT22;27566;50.930;5.328;2024-01-30T02:33:06;10.40;78.70
41884;DHT22;27566;50.930;5.328;2024-01-30T02:35:32;10.60;78.60
41884;DHT22;27566;50.930;5.328;2024-01-30T02:37:58;10.80;78.80
41884;DHT22;27566;50.930;5.328;2024-01-30T02:42:50;10.60;78.70
41884;DHT22;27566;50.930;5.328;2024-01-30T02:47:42;10.90;78.20
41884;DHT22;27566;50.930;5.328;2024-01-30T02:50:08;10.70;78.70
41884;DHT22;27566;50.930;5.328;2024-01-30T02:52:34;10.90;78.80
41884;DHT22;27566;50.930;5.328;2024-01-30T02:57:26;10.90;78.20
41884;DHT22;27566;50.930;5.328;2024-01-30T02:59:52;10.90;78.80
41884;DHT22;27566;50.930;5.328;2024-01-30T03:02:18;11.20;78.80
41884;DHT22;27566;50.930;5.328;2024-01-30T03:07:11;11.00;78.10
41884;DHT22;27566;50.930;5.328;2024-01-30T03:12:04;11.00;78.00
41884;DHT22;27566;50.930;5.328;2024-01-30T03:14:32;10.70;78.20
41884;DHT22;27566;50.930;5.328;2024-01-30T03:16:58;11.00;78.30
41884;DHT22;27566;50.930;5.328;2024-01-30T03:19:24;11.00;78.40
41884;DHT22;27566;50.930;5.328;2024-01-30T03:21:50;11.00;78.30
41884;DHT22;27566;50.930;5.328;2024-01-30T03:24:16;11.00;78.50
41884;DHT22;27566;50.930;5.328;2024-01-30T03:29:09;10.70;77.70
41884;DHT22;27566;50.930;5.328;2024-01-30T03:34:01;11.00;77.80
41884;DHT22;27566;50.930;5.328;2024-01-30T03:36:27;11.00;78.40
41884;DHT22;27566;50.930;5.328;2024-01-30T03:38:53;10.70;78.20
41884;DHT22;27566;50.930;5.328;2024-01-30T03:43:45;11.00;78.30
41884;DHT22;27566;50.930;5.328;2024-01-30T03:46:14;11.20;78.50
41884;DHT22;27566;50.930;5.328;2024-01-30T03:48:40;10.90;78.60
41884;DHT22;27566;50.930;5.328;2024-01-30T03:51:05;10.00;78.50
41884;DHT22;27566;50.930;5.328;2024-01-30T03:55:57;10.80;78.80
41884;DHT22;27566;50.930;5.328;2024-01-30T04:00:49;10.80;79.00
41884;DHT22;27566;50.930;5.328;2024-01-30T04:03:15;10.70;79.10
41884;DHT22;27566;50.930;5.328;2024-01-30T04:05:41;10.70;79.40
41884;DHT22;27566;50.930;5.328;2024-01-30T04:08:07;10.80;79.70
41884;DHT22;27566;50.930;5.328;2024-01-30T04:10:34;10.60;79.80
41884;DHT22;27566;50.930;5.328;2024-01-30T04:13:00;10.60;80.00
41884;DHT22;27566;50.930;5.328;2024-01-30T04:15:26;10.70;80.20
41884;DHT22;27566;50.930;5.328;2024-01-30T04:17:52;10.60;80.30
41884;DHT22;27566;50.930;5.328;2024-01-30T04:22:45;10.60;80.30
41884;DHT22;27566;50.930;5.328;2024-01-30T04:25:12;10.60;80.90
41884;DHT22;27566;50.930;5.328;2024-01-30T04:27:38;10.60;80.80
41884;DHT22;27566;50.930;5.328;2024-01-30T04:30:05;10.70;80.90
41884;DHT22;27566;50.930;5.328;2024-01-30T04:32:31;10.60;80.80
41884;DHT22;27566;50.930;5.328;2024-01-30T04:34:57;10.80;81.10
41884;DHT22;27566;50.930;5.328;2024-01-30T04:37:23;10.60;80.90
41884;DHT22;27566;50.930;5.328;2024-01-30T04:39:50;10.80;81.60
41884;DHT22;27566;50.930;5.328;2024-01-30T04:42:16;10.50;81.20
41884;DHT22;27566;50.930;5.328;2024-01-30T04:44:42;10.50;80.70
41884;DHT22;27566;50.930;5.328;2024-01-30T04:47:09;10.60;82.80
41884;DHT22;27566;50.930;5.328;2024-01-30T04:49:38;10.60;81.50
41884;DHT22;27566;50.930;5.328;2024-01-30T04:52:05;10.40;81.90
41884;DHT22;27566;50.930;5.328;2024-01-30T04:54:31;10.60;81.50
41884;DHT22;27566;50.930;5.328;2024-01-30T04:56:57;10.40;82.70
41884;DHT22;27566;50.930;5.328;2024-01-30T04:59:24;10.70;81.60
41884;DHT22;27566;50.930;5.328;2024-01-30T05:01:50;10.50;83.00
41884;DHT22;27566;50.930;5.328;2024-01-30T05:04:16;10.70;83.50
41884;DHT22;27566;50.930;5.328;2024-01-30T05:06:42;10.60;81.30
41884;DHT22;27566;50.930;5.328;2024-01-30T05:09:08;10.80;81.10
41884;DHT22;27566;50.930;5.328;2024-01-30T05:11:41;11.20;83.20
41884;DHT22;27566;50.930;5.328;2024-01-30T05:14:07;11.30;83.40
41884;DHT22;27566;50.930;5.328;2024-01-30T05:16:34;11.00;82.90
41884;DHT22;27566;50.930;5.328;2024-01-30T05:19:00;10.90;81.70
41884;DHT22;27566;50.930;5.328;2024-01-30T05:21:26;10.90;83.20
41884;DHT22;27566;50.930;5.328;2024-01-30T05:26:18;10.80;83.00
41884;DHT22;27566;50.930;5.328;2024-01-30T05:33:37;11.10;80.50
41884;DHT22;27566;50.930;5.328;2024-01-30T05:36:03;11.30;82.40
41884;DHT22;27566;50.930;5.328;2024-01-30T05:38:29;11.10;81.00
41884;DHT22;27566;50.930;5.328;2024-01-30T05:40:58;11.10;81.80
41884;DHT22;27566;50.930;5.328;2024-01-30T05:45:51;11.10;81.90
41884;DHT22;27566;50.930;5.328;2024-01-30T05:50:44;11.10;80.30
41884;DHT22;27566;50.930;5.328;2024-01-30T05:53:11;11.20;80.30
41884;DHT22;27566;50.930;5.328;2024-01-30T05:58:11;11.50;81.50
41884;DHT22;27566;50.930;5.328;2024-01-30T06:00:37;11.20;81.10
41884;DHT22;27566;50.930;5.328;2024-01-30T06:03:03;10.90;80.30
41884;DHT22;27566;50.930;5.328;2024-01-30T06:05:29;11.30;80.40
41884;DHT22;27566;50.930;5.328;2024-01-30T06:07:55;11.20;80.40
41884;DHT22;27566;50.930;5.328;2024-01-30T06:12:47;11.60;80.00
41884;DHT22;27566;50.930;5.328;2024-01-30T06:17:40;11.20;79.80
41884;DHT22;27566;50.930;5.328;2024-01-30T06:20:06;11.60;80.10
41884;DHT22;27566;50.930;5.328;2024-01-30T06:22:32;11.50;80.10
41884;DHT22;27566;50.930;5.328;2024-01-30T06:24:58;11.60;79.90
41884;DHT22;27566;50.930;5.328;2024-01-30T06:27:23;11.50;79.90
41884;DHT22;27566;50.930;5.328;2024-01-30T06:32:15;11.50;79.10
41884;DHT22;27566;50.930;5.328;2024-01-30T06:37:09;11.70;79.70
41884;DHT22;27566;50.930;5.328;2024-01-30T06:42:01;11.50;79.10
41884;DHT22;27566;50.930;5.328;2024-01-30T06:44:27;11.30;79.50
41884;DHT22;27566;50.930;5.328;2024-01-30T06:46:53;11.50;79.70
41884;DHT22;27566;50.930;5.328;2024-01-30T06:49:19;11.50;79.70
41884;DHT22;27566;50.930;5.328;2024-01-30T06:54:13;11.50;79.20
41884;DHT22;27566;50.930;5.328;2024-01-30T06:56:39;11.60;80.20
41884;DHT22;27566;50.930;5.328;2024-01-30T07:01:31;11.40;79.40
41884;DHT22;27566;50.930;5.328;2024-01-30T07:03:58;11.40;80.10
41884;DHT22;27566;50.930;5.328;2024-01-30T07:06:24;11.80;80.30
41884;DHT22;27566;50.930;5.328;2024-01-30T07:08:50;11.60;80.20
41884;DHT22;27566;50.930;5.328;2024-01-30T07:11:20;11.50;79.40
41884;DHT22;27566;50.930;5.328;2024-01-30T07:13:48;11.60;80.20
41884;DHT22;27566;50.930;5.328;2024-01-30T07:16:14;11.70;80.20
41884;DHT22;27566;50.930;5.328;2024-01-30T07:18:40;11.80;80.10
41884;DHT22;27566;50.930;5.328;2024-01-30T07:21:06;11.90;80.20
41884;DHT22;27566;50.930;5.328;2024-01-30T07:23:32;11.70;80.10
41884;DHT22;27566;50.930;5.328;2024-01-30T07:26:03;11.90;79.90
41884;DHT22;27566;50.930;5.328;2024-01-30T07:28:29;12.00;79.90
41884;DHT22;27566;50.930;5.328;2024-01-30T07:30:56;11.90;79.90
41884;DHT22;27566;50.930;5.328;2024-01-30T07:33:22;12.00;79.80
41884;DHT22;27566;50.930;5.328;2024-01-30T07:35:47;11.80;79.00
41884;DHT22;27566;50.930;5.328;2024-01-30T07:38:13;11.80;79.00
41884;DHT22;27566;50.930;5.328;2024-01-30T07:40:39;11.80;79.70
41884;DHT22;27566;50.930;5.328;2024-01-30T07:48:00;11.60;79.30
41884;DHT22;27566;50.930;5.328;2024-01-30T07:50:26;12.00;79.70
41884;DHT22;27566;50.930;5.328;2024-01-30T07:55:21;12.00;78.80
41884;DHT22;27566;50.930;5.328;2024-01-30T07:57:52;12.10;79.50
41884;DHT22;27566;50.930;5.328;2024-01-30T08:00:20;12.10;79.70
41884;DHT22;27566;50.930;5.328;2024-01-30T08:02:47;12.10;79.40
41884;DHT22;27566;50.930;5.328;2024-01-30T08:05:13;12.00;79.20
41884;DHT22;27566;50.930;5.328;2024-01-30T08:07:41;12.50;79.30
41884;DHT22;27566;50.930;5.328;2024-01-30T08:10:08;12.20;79.10
41884;DHT22;27566;50.930;5.328;2024-01-30T08:12:34;12.60;79.10
41884;DHT22;27566;50.930;5.328;2024-01-30T08:15:00;12.40;79.10
41884;DHT22;27566;50.930;5.328;2024-01-30T08:19:52;12.80;78.80
41884;DHT22;27566;50.930;5.328;2024-01-30T08:22:18;12.60;78.70
41884;DHT22;27566;50.930;5.328;2024-01-30T08:24:45;12.80;78.50
41884;DHT22;27566;50.930;5.328;2024-01-30T08:27:11;12.60;77.60
41884;DHT22;27566;50.930;5.328;2024-01-30T08:29:37;12.80;78.00
41884;DHT22;27566;50.930;5.328;2024-01-30T08:32:07;12.60;77.80
41884;DHT22;27566;50.930;5.328;2024-01-30T08:34:33;12.90;77.40
41884;DHT22;27566;50.930;5.328;2024-01-30T08:36:59;13.10;77.30
41884;DHT22;27566;50.930;5.328;2024-01-30T08:39:25;12.70;77.20
41884;DHT22;27566;50.930;5.328;2024-01-30T08:41:51;13.00;77.00
41884;DHT22;27566;50.930;5.328;2024-01-30T08:44:17;15.60;78.00
41884;DHT22;27566;50.930;5.328;2024-01-30T08:46:44;13.00;75.90
41884;DHT22;27566;50.930;5.328;2024-01-30T08:49:16;13.00;76.50
41884;DHT22;27566;50.930;5.328;2024-01-30T08:51:42;12.90;76.40
41884;DHT22;27566;50.930;5.328;2024-01-30T08:54:08;13.40;76.50
41884;DHT22;27566;50.930;5.328;2024-01-30T08:59:00;13.30;75.60
41884;DHT22;27566;50.930;5.328;2024-01-30T09:03:53;13.20;75.20
41884;DHT22;27566;50.930;5.328;2024-01-30T09:06:19;13.30;74.80
41884;DHT22;27566;50.930;5.328;2024-01-30T09:08:45;13.20;74.60
41884;DHT22;27566;50.930;5.328;2024-01-30T09:11:15;13.80;74.80
41884;DHT22;27566;50.930;5.328;2024-01-30T09:13:41;13.60;75.10
41884;DHT22;27566;50.930;5.328;2024-01-30T09:16:07;13.50;73.20
41884;DHT22;27566;50.930;5.328;2024-01-30T09:18:35;13.60;73.10
41884;DHT22;27566;50.930;5.328;2024-01-30T09:21:01;13.70;73.30
41884;DHT22;27566;50.930;5.328;2024-01-30T09:23:30;13.80;73.50
41884;DHT22;27566;50.930;5.328;2024-01-30T09:25:56;14.00;73.50
41884;DHT22;27566;50.930;5.328;2024-01-30T09:28:22;13.80;73.80
41884;DHT22;27566;50.930;5.328;2024-01-30T09:30:48;13.80;73.20
41884;DHT22;27566;50.930;5.328;2024-01-30T09:33:14;13.90;73.50
41884;DHT22;27566;50.930;5.328;2024-01-30T09:35:40;13.90;72.80
41884;DHT22;27566;50.930;5.328;2024-01-30T09:40:32;14.30;72.90
41884;DHT22;27566;50.930;5.328;2024-01-30T09:42:59;14.10;73.10
41884;DHT22;27566;50.930;5.328;2024-01-30T09:45:27;14.10;73.20
41884;DHT22;27566;50.930;5.328;2024-01-30T09:50:20;14.40;72.30
41884;DHT22;27566;50.930;5.328;2024-01-30T09:52:47;14.60;71.60
41884;DHT22;27566;50.930;5.328;2024-01-30T09:55:13;14.50;72.30
41884;DHT22;27566;50.930;5.328;2024-01-30T09:57:41;14.70;72.20
41884;DHT22;27566;50.930;5.328;2024-01-30T10:00:07;14.80;71.40
41884;DHT22;27566;50.930;5.328;2024-01-30T10:02:35;14.80;71.90
41884;DHT22;27566;50.930;5.328;2024-01-30T10:05:01;15.00;71.30
41884;DHT22;27566;50.930;5.328;2024-01-30T10:07:27;15.00;70.10
41884;DHT22;27566;50.930;5.328;2024-01-30T10:09:54;15.20;69.00
41884;DHT22;27566;50.930;5.328;2024-01-30T10:17:14;15.60;69.00
41884;DHT22;27566;50.930;5.328;2024-01-30T10:19:41;15.60;68.90
41884;DHT22;27566;50.930;5.328;2024-01-30T10:22:09;15.60;68.40
41884;DHT22;27566;50.930;5.328;2024-01-30T10:24:35;15.60;69.00
41884;DHT22;27566;50.930;5.328;2024-01-30T10:29:28;15.70;67.90
41884;DHT22;27566;50.930;5.328;2024-01-30T10:32:04;15.70;68.80
41884;DHT22;27566;50.930;5.328;2024-01-30T10:34:31;15.70;68.40
41884;DHT22;27566;50.930;5.328;2024-01-30T10:37:08;15.60;68.40
41884;DHT22;27566;50.930;5.328;2024-01-30T10:39:42;15.70;68.70
41884;DHT22;27566;50.930;5.328;2024-01-30T10:42:13;15.50;69.00
41884;DHT22;27566;50.930;5.328;2024-01-30T10:47:28;15.40;70.00
41884;DHT22;27566;50.930;5.328;2024-01-30T10:49:55;15.40;69.90
41884;DHT22;27566;50.930;5.328;2024-01-30T10:52:24;15.40;69.50
41884;DHT22;27566;50.930;5.328;2024-01-30T10:54:54;15.40;70.10
41884;DHT22;27566;50.930;5.328;2024-01-30T10:57:22;15.40;70.30
41884;DHT22;27566;50.930;5.328;2024-01-30T10:59:49;15.30;70.40
41884;DHT22;27566;50.930;5.328;2024-01-30T11:02:18;15.20;70.80
41884;DHT22;27566;50.930;5.328;2024-01-30T11:04:45;15.10;70.60
41884;DHT22;27566;50.930;5.328;2024-01-30T11:07:19;15.10;70.50
41884;DHT22;27566;50.930;5.328;2024-01-30T11:12:25;15.00;71.70
41884;DHT22;27566;50.930;5.328;2024-01-30T11:15:16;14.90;71.70
41884;DHT22;27566;50.930;5.328;2024-01-30T11:17:52;14.90;72.00
41884;DHT22;27566;50.930;5.328;2024-01-30T11:20:29;14.80;72.20
41884;DHT22;27566;50.930;5.328;2024-01-30T11:22:59;14.80;72.40
41884;DHT22;27566;50.930;5.328;2024-01-30T11:25:32;14.80;73.10
41884;DHT22;27566;50.930;5.328;2024-01-30T11:27:58;14.80;72.80
41884;DHT22;27566;50.930;5.328;2024-01-30T11:30:27;14.80;73.00
41884;DHT22;27566;50.930;5.328;2024-01-30T11:33:10;14.70;72.80
41884;DHT22;27566;50.930;5.328;2024-01-30T11:35:41;14.60;72.80
41884;DHT22;27566;50.930;5.328;2024-01-30T11:38:13;14.70;73.40
41884;DHT22;27566;50.930;5.328;2024-01-30T11:40:39;14.60;72.90
41884;DHT22;27566;50.930;5.328;2024-01-30T11:43:06;14.70;73.50
41884;DHT22;27566;50.930;5.328;2024-01-30T11:45:33;14.70;73.50
41884;DHT22;27566;50.930;5.328;2024-01-30T11:48:00;14.70;73.60
41884;DHT22;27566;50.930;5.328;2024-01-30T11:50:35;14.80;73.70
41884;DHT22;27566;50.930;5.328;2024-01-30T11:55:29;14.80;73.10
41884;DHT22;27566;50.930;5.328;2024-01-30T11:57:59;15.30;73.10
41884;DHT22;27566;50.930;5.328;2024-01-30T12:00:25;15.30;72.50
41884;DHT22;27566;50.930;5.328;2024-01-30T12:02:55;15.10;72.40
41884;DHT22;27566;50.930;5.328;2024-01-30T12:05:25;15.30;72.20
41884;DHT22;27566;50.930;5.328;2024-01-30T12:07:51;14.90;71.20
41884;DHT22;27566;50.930;5.328;2024-01-30T12:10:17;15.40;71.80
41884;DHT22;27566;50.930;5.328;2024-01-30T12:12:46;15.50;71.20
41884;DHT22;27566;50.930;5.328;2024-01-30T12:15:13;15.50;71.80
41884;DHT22;27566;50.930;5.328;2024-01-30T12:17:39;15.50;71.60
41884;DHT22;27566;50.930;5.328;2024-01-30T12:20:10;15.50;71.40
41884;DHT22;27566;50.930;5.328;2024-01-30T12:22:40;15.80;70.80
41884;DHT22;27566;50.930;5.328;2024-01-30T12:25:12;15.60;71.10
41884;DHT22;27566;50.930;5.328;2024-01-30T12:27:39;15.60;71.10
41884;DHT22;27566;50.930;5.328;2024-01-30T12:30:14;15.50;70.80
41884;DHT22;27566;50.930;5.328;2024-01-30T12:32:42;15.40;71.00
41884;DHT22;27566;50.930;5.328;2024-01-30T12:35:15;15.20;71.20
41884;DHT22;27566;50.930;5.328;2024-01-30T12:37:43;15.00;71.50
41884;DHT22;27566;50.930;5.328;2024-01-30T12:40:10;14.90;72.10
41884;DHT22;27566;50.930;5.328;2024-01-30T12:42:37;14.80;72.40
41884;DHT22;27566;50.930;5.328;2024-01-30T12:45:04;14.70;72.40
41884;DHT22;27566;50.930;5.328;2024-01-30T12:47:30;14.70;71.90
41884;DHT22;27566;50.930;5.328;2024-01-30T12:49:56;14.70;71.90
41884;DHT22;27566;50.930;5.328;2024-01-30T12:52:23;14.90;72.20
41884;DHT22;27566;50.930;5.328;2024-01-30T12:54:49;14.80;70.40
41884;DHT22;27566;50.930;5.328;2024-01-30T12:57:15;14.90;70.10
41884;DHT22;27566;50.930;5.328;2024-01-30T12:59:43;14.90;69.50
41884;DHT22;27566;50.930;5.328;2024-01-30T13:02:09;15.00;69.30
41884;DHT22;27566;50.930;5.328;2024-01-30T13:04:35;15.30;68.50
41884;DHT22;27566;50.930;5.328;2024-01-30T13:07:02;15.10;68.60
41884;DHT22;27566;50.930;5.328;2024-01-30T13:09:32;15.10;67.80
41884;DHT22;27566;50.930;5.328;2024-01-30T13:11:59;15.20;67.50
41884;DHT22;27566;50.930;5.328;2024-01-30T13:14:25;15.30;67.20
41884;DHT22;27566;50.930;5.328;2024-01-30T13:16:52;15.30;66.60
41884;DHT22;27566;50.930;5.328;2024-01-30T13:21:44;15.30;65.10
41884;DHT22;27566;50.930;5.328;2024-01-30T13:24:10;15.30;65.40
41884;DHT22;27566;50.930;5.328;2024-01-30T13:26:36;15.40;65.00
41884;DHT22;27566;50.930;5.328;2024-01-30T13:29:02;15.40;64.50
41884;DHT22;27566;50.930;5.328;2024-01-30T13:31:29;15.40;64.20
41884;DHT22;27566;50.930;5.328;2024-01-30T13:33:55;15.40;63.80
41884;DHT22;27566;50.930;5.328;2024-01-30T13:36:22;15.40;64.00
41884;DHT22;27566;50.930;5.328;2024-01-30T13:38:48;15.40;63.40
41884;DHT22;27566;50.930;5.328;2024-01-30T13:41:14;15.30;62.60
41884;DHT22;27566;50.930;5.328;2024-01-30T13:43:43;15.30;62.80
41884;DHT22;27566;50.930;5.328;2024-01-30T13:46:09;15.20;62.10
41884;DHT22;27566;50.930;5.328;2024-01-30T13:51:01;14.80;61.40
41884;DHT22;27566;50.930;5.328;2024-01-30T13:55:53;14.40;61.10
41884;DHT22;27566;50.930;5.328;2024-01-30T14:03:11;13.50;62.50
41884;DHT22;27566;50.930;5.328;2024-01-30T14:05:37;13.70;63.00
41884;DHT22;27566;50.930;5.328;2024-01-30T14:08:03;13.50;63.30
41884;DHT22;27566;50.930;5.328;2024-01-30T14:12:55;13.40;63.10
41884;DHT22;27566;50.930;5.328;2024-01-30T14:15:22;13.30;64.00
41884;DHT22;27566;50.930;5.328;2024-01-30T14:20:15;13.20;63.60
41884;DHT22;27566;50.930;5.328;2024-01-30T14:22:44;13.40;64.30
41884;DHT22;27566;50.930;5.328;2024-01-30T14:25:10;13.20;63.80
41884;DHT22;27566;50.930;5.328;2024-01-30T14:27:36;13.20;65.00
41884;DHT22;27566;50.930;5.328;2024-01-30T14:32:28;13.40;65.00
41884;DHT22;27566;50.930;5.328;2024-01-30T14:34:54;13.20;64.40
41884;DHT22;27566;50.930;5.328;2024-01-30T14:37:21;13.50;64.10
41884;DHT22;27566;50.930;5.328;2024-01-30T14:39:48;13.30;63.60
41884;DHT22;27566;50.930;5.328;2024-01-30T14:42:15;13.90;63.80
41884;DHT22;27566;50.930;5.328;2024-01-30T14:44:41;13.40;63.20
41884;DHT22;27566;50.930;5.328;2024-01-30T14:47:08;13.40;63.00
41884;DHT22;27566;50.930;5.328;2024-01-30T14:54:27;13.60;62.00
41884;DHT22;27566;50.930;5.328;2024-01-30T14:56:53;13.60;61.80
41884;DHT22;27566;50.930;5.328;2024-01-30T15:01:46;13.60;61.60
41884;DHT22;27566;50.930;5.328;2024-01-30T15:11:34;13.60;61.10
41884;DHT22;27566;50.930;5.328;2024-01-30T15:14:01;13.50;61.40
41884;DHT22;27566;50.930;5.328;2024-01-30T15:16:27;13.50;61.80
41884;DHT22;27566;50.930;5.328;2024-01-30T15:21:20;13.20;60.80
41884;DHT22;27566;50.930;5.328;2024-01-30T15:23:48;12.80;60.90
41884;DHT22;27566;50.930;5.328;2024-01-30T15:26:14;13.10;60.10
41884;DHT22;27566;50.930;5.328;2024-01-30T15:28:41;13.00;61.40
41884;DHT22;27566;50.930;5.328;2024-01-30T15:33:33;13.10;59.80
41884;DHT22;27566;50.930;5.328;2024-01-30T15:36:01;13.30;60.60
41884;DHT22;27566;50.930;5.328;2024-01-30T15:38:27;12.30;59.40
41884;DHT22;27566;50.930;5.328;2024-01-30T15:40:54;10.10;58.70
41884;DHT22;27566;50.930;5.328;2024-01-30T15:45:47;12.90;58.90
41884;DHT22;27566;50.930;5.328;2024-01-30T15:53:05;12.80;60.80
41884;DHT22;27566;50.930;5.328;2024-01-30T15:55:31;12.70;60.90
41884;DHT22;27566;50.930;5.328;2024-01-30T15:57:57;12.80;61.50
41884;DHT22;27566;50.930;5.328;2024-01-30T16:02:49;12.90;62.60
41884;DHT22;27566;50.930;5.328;2024-01-30T16:05:15;12.50;62.50
41884;DHT22;27566;50.930;5.328;2024-01-30T16:10:07;12.50;62.50
41884;DHT22;27566;50.930;5.328;2024-01-30T16:12:34;12.30;63.70
41884;DHT22;27566;50.930;5.328;2024-01-30T16:15:01;12.50;63.70
41884;DHT22;27566;50.930;5.328;2024-01-30T16:17:27;12.10;64.70
41884;DHT22;27566;50.930;5.328;2024-01-30T16:19:53;12.20;65.30
41884;DHT22;27566;50.930;5.328;2024-01-30T16:24:46;10.10;63.90
41884;DHT22;27566;50.930;5.328;2024-01-30T16:27:12;12.50;66.90
41884;DHT22;27566;50.930;5.328;2024-01-30T16:29:38;12.30;67.40
41884;DHT22;27566;50.930;5.328;2024-01-30T16:32:05;11.80;67.30
41884;DHT22;27566;50.930;5.328;2024-01-30T16:36:57;12.00;67.00
41884;DHT22;27566;50.930;5.328;2024-01-30T16:39:23;11.80;68.80
41884;DHT22;27566;50.930;5.328;2024-01-30T16:41:49;11.90;67.70
41884;DHT22;27566;50.930;5.328;2024-01-30T16:44:15;11.90;69.60
41884;DHT22;27566;50.930;5.328;2024-01-30T16:46:41;11.80;68.30
41884;DHT22;27566;50.930;5.328;2024-01-30T16:49:07;11.80;69.50
41884;DHT22;27566;50.930;5.328;2024-01-30T16:51:33;11.50;69.70
41884;DHT22;27566;50.930;5.328;2024-01-30T16:53:59;11.50;69.70
41884;DHT22;27566;50.930;5.328;2024-01-30T16:56:26;11.70;69.20
41884;DHT22;27566;50.930;5.328;2024-01-30T16:58:52;11.40;69.90
41884;DHT22;27566;50.930;5.328;2024-01-30T17:06:11;11.60;68.70
41884;DHT22;27566;50.930;5.328;2024-01-30T17:08:37;11.20;69.70
41884;DHT22;27566;50.930;5.328;2024-01-30T17:25:42;11.50;69.10
41884;DHT22;27566;50.930;5.328;2024-01-30T17:52:38;11.20;70.00
41884;DHT22;27566;50.930;5.328;2024-01-30T18:24:21;10.60;74.20
41884;DHT22;27566;50.930;5.328;2024-01-30T18:26:47;10.50;76.00
41884;DHT22;27566;50.930;5.328;2024-01-30T18:34:09;10.60;75.20
41884;DHT22;27566;50.930;5.328;2024-01-30T18:56:09;10.40;76.70
41884;DHT22;27566;50.930;5.328;2024-01-30T18:58:35;10.40;76.90
41884;DHT22;27566;50.930;5.328;2024-01-30T19:08:21;10.40;77.00
41884;DHT22;27566;50.930;5.328;2024-01-30T19:10:47;10.40;76.90
41884;DHT22;27566;50.930;5.328;2024-01-30T19:15:44;10.70;78.80
41884;DHT22;27566;50.930;5.328;2024-01-30T19:25:29;10.40;77.20
41884;DHT22;27566;50.930;5.328;2024-01-30T19:30:25;10.40;77.30
41884;DHT22;27566;50.930;5.328;2024-01-30T19:45:06;10.20;79.90
41884;DHT22;27566;50.930;5.328;2024-01-30T19:47:35;10.50;79.80
41884;DHT22;27566;50.930;5.328;2024-01-30T19:50:01;10.40;77.40
41884;DHT22;27566;50.930;5.328;2024-01-30T19:54:54;10.10;79.90
41884;DHT22;27566;50.930;5.328;2024-01-30T20:07:11;10.30;79.70
41884;DHT22;27566;50.930;5.328;2024-01-30T20:09:39;10.50;80.00
41884;DHT22;27566;50.930;5.328;2024-01-30T20:14:32;10.50;80.10
41884;DHT22;27566;50.930;5.328;2024-01-30T20:19:26;10.40;77.30
41884;DHT22;27566;50.930;5.328;2024-01-30T20:26:44;10.10;80.00
41884;DHT22;27566;50.930;5.328;2024-01-30T20:36:49;10.30;77.60
41884;DHT22;27566;50.930;5.328;2024-01-30T20:41:42;10.30;77.80
41884;DHT22;27566;50.930;5.328;2024-01-30T20:46:36;10.50;81.70
41884;DHT22;27566;50.930;5.328;2024-01-30T20:49:02;10.30;81.10
41884;DHT22;27566;50.930;5.328;2024-01-30T20:58:48;10.40;81.90
41884;DHT22;27566;50.930;5.328;2024-01-30T21:03:40;10.20;81.60
41884;DHT22;27566;50.930;5.328;2024-01-30T21:06:07;10.20;81.90
41884;DHT22;27566;50.930;5.328;2024-01-30T21:13:34;10.20;78.40
41884;DHT22;27566;50.930;5.328;2024-01-30T21:18:26;10.50;81.70